createdAt,value
2018-05-03T00:01:11.105Z,6.33
2018-05-03T00:03:40.215Z,6.47
2018-05-03T00:06:08.617Z,6.83
2018-05-03T00:08:36.954Z,6.73
2018-05-03T00:11:06.119Z,6.13
2018-05-03T00:13:34.507Z,6.37
2018-05-03T00:16:03.151Z,6.07
2018-05-03T00:18:31.503Z,6.07
2018-05-03T00:21:00.614Z,6.00
2018-05-03T00:23:28.963Z,5.80
2018-05-03T00:25:57.316Z,5.40
2018-05-03T00:28:25.768Z,5.20
2018-05-03T00:30:54.147Z,5.73
2018-05-03T00:33:22.527Z,4.87
2018-05-03T00:35:50.885Z,5.00
2018-05-03T00:38:20.056Z,5.57
2018-05-03T00:40:48.801Z,5.33
2018-05-03T00:43:17.406Z,6.10
2018-05-03T00:45:45.749Z,6.20
2018-05-03T00:48:14.309Z,6.50
2018-05-03T00:50:42.642Z,5.83
2018-05-03T00:53:11.127Z,6.20
2018-05-03T00:55:39.746Z,6.33
2018-05-03T00:58:08.871Z,6.70
2018-05-03T01:00:37.314Z,6.67
2018-05-03T01:03:05.727Z,6.40
2018-05-03T01:05:34.255Z,5.33
2018-05-03T01:08:02.600Z,5.57
2018-05-03T01:10:30.971Z,5.30
2018-05-03T01:12:59.308Z,4.77
2018-05-03T01:15:27.669Z,5.13
2018-05-03T01:17:56.006Z,4.87
2018-05-03T01:20:25.513Z,4.63
2018-05-03T01:22:53.912Z,4.83
2018-05-03T01:25:22.236Z,3.73
2018-05-03T01:27:50.618Z,4.77
2018-05-03T01:30:19.826Z,4.20
2018-05-03T01:32:48.161Z,4.43
2018-05-03T01:35:28.548Z,4.33
2018-05-03T01:37:56.919Z,4.60
2018-05-03T01:40:25.290Z,4.20
2018-05-03T01:42:53.644Z,4.27
2018-05-03T01:45:22.002Z,4.80
2018-05-03T01:47:50.406Z,4.40
2018-05-03T01:50:18.994Z,4.20
2018-05-03T01:52:47.347Z,4.23
2018-05-03T01:55:15.695Z,4.70
2018-05-03T01:57:44.810Z,4.23
2018-05-03T02:00:13.194Z,4.40
2018-05-03T02:02:41.603Z,4.17
2018-05-03T02:05:09.979Z,4.27
2018-05-03T02:07:38.319Z,4.70
2018-05-03T02:10:07.448Z,5.03
2018-05-03T02:12:35.793Z,5.17
2018-05-03T02:15:05.020Z,4.37
2018-05-03T02:17:33.562Z,4.30
2018-05-03T02:20:01.911Z,4.53
2018-05-03T02:22:30.270Z,4.97
2018-05-03T02:24:58.605Z,4.23
2018-05-03T02:27:27.738Z,4.80
2018-05-03T02:29:56.136Z,4.17
2018-05-03T02:32:24.559Z,4.40
2018-05-03T02:34:52.889Z,4.70
2018-05-03T02:37:21.255Z,4.67
2018-05-03T02:39:49.631Z,5.03
2018-05-03T02:42:17.987Z,4.77
2018-05-03T02:44:47.097Z,4.80
2018-05-03T02:47:15.487Z,4.77
2018-05-03T02:49:43.822Z,4.67
2018-05-03T02:52:12.175Z,4.50
2018-05-03T02:54:40.515Z,4.97
2018-05-03T02:57:20.797Z,4.20
2018-05-03T03:00:00.987Z,4.87
2018-05-03T03:02:47.140Z,5.03
2018-05-03T03:05:33.157Z,4.17
2018-05-03T03:15:03.383Z,5.65
2018-05-03T03:17:49.230Z,4.87
2018-05-03T03:20:54.151Z,4.90
2018-05-03T03:23:40.283Z,4.67
2018-05-03T03:26:26.225Z,4.93
2018-05-03T03:29:12.240Z,4.67
2018-05-03T03:31:59.244Z,5.00
2018-05-03T03:34:30.588Z,4.53
2018-05-03T03:37:16.006Z,4.93
2018-05-03T03:40:02.843Z,5.00
2018-05-03T03:45:46.762Z,5.47
2018-05-03T03:48:15.110Z,5.33
2018-05-03T03:50:43.435Z,5.03
2018-05-03T03:53:11.813Z,5.47
2018-05-03T03:55:40.275Z,5.17
2018-05-03T03:58:08.628Z,5.70
2018-05-03T04:00:37.062Z,4.87
2018-05-03T04:03:05.410Z,5.00
2018-05-03T04:05:33.829Z,5.10
2018-05-03T04:08:02.935Z,5.30
2018-05-03T04:10:32.952Z,5.50
2018-05-03T04:13:02.075Z,5.70
2018-05-03T04:15:30.427Z,5.27
2018-05-03T04:18:11.475Z,5.50
2018-05-03T04:21:02.462Z,5.27
2018-05-03T04:26:34.703Z,6.32
2018-05-03T04:29:03.096Z,5.83
2018-05-03T04:31:32.193Z,5.60
2018-05-03T04:34:00.537Z,5.83
2018-05-03T04:36:29.093Z,5.60
2018-05-03T04:38:57.704Z,5.57
2018-05-03T04:41:26.099Z,5.70
2018-05-03T04:43:55.222Z,5.70
2018-05-03T04:46:23.584Z,5.53
2018-05-03T04:48:52.687Z,6.23
2018-05-03T04:51:21.049Z,6.30
2018-05-03T04:53:50.237Z,6.03
2018-05-03T04:56:18.604Z,6.40
2018-05-03T04:58:46.961Z,6.33
2018-05-03T05:01:15.354Z,6.23
2018-05-03T05:03:43.775Z,6.27
2018-05-03T05:06:12.152Z,6.83
2018-05-03T05:08:41.399Z,7.43
2018-05-03T05:11:09.810Z,7.40
2018-05-03T05:13:38.233Z,8.20
2018-05-03T05:16:06.593Z,8.67
2018-05-03T05:18:34.963Z,8.87
2018-05-03T05:21:04.072Z,9.33
2018-05-03T05:23:32.416Z,8.30
2018-05-03T05:26:00.872Z,9.43
2018-05-03T05:28:29.198Z,10.83
2018-05-03T05:30:57.616Z,9.60
2018-05-03T05:33:26.042Z,10.00
2018-05-03T05:35:55.201Z,10.13
2018-05-03T05:38:23.558Z,11.30
2018-05-03T05:40:52.786Z,10.97
2018-05-03T05:43:21.143Z,11.40
2018-05-03T05:45:49.504Z,11.27
2018-05-03T05:48:17.838Z,11.20
2018-05-03T05:50:46.214Z,10.57
2018-05-03T05:53:14.553Z,11.50
2018-05-03T05:55:43.036Z,11.27
2018-05-03T05:58:11.416Z,11.10
2018-05-03T06:00:39.906Z,11.23
2018-05-03T06:03:08.293Z,12.37
2018-05-03T06:05:37.253Z,11.70
2018-05-03T06:08:05.629Z,12.67
2018-05-03T06:10:33.983Z,12.53
2018-05-03T06:13:02.430Z,12.40
2018-05-03T06:15:30.805Z,13.40
2018-05-03T06:17:59.180Z,12.67
2018-05-03T06:20:27.556Z,13.10
2018-05-03T06:22:56.146Z,13.70
2018-05-03T06:25:24.506Z,13.03
2018-05-03T06:27:52.893Z,13.63
2018-05-03T06:30:21.257Z,11.50
2018-05-03T06:32:49.700Z,12.77
2018-05-03T06:35:18.334Z,14.00
2018-05-03T06:37:46.800Z,13.83
2018-05-03T06:40:15.227Z,12.37
2018-05-03T06:42:43.595Z,12.10
2018-05-03T06:45:12.085Z,11.97
2018-05-03T06:47:41.032Z,11.03
2018-05-03T06:50:09.706Z,10.13
2018-05-03T06:52:38.838Z,10.07
2018-05-03T06:55:07.426Z,10.10
2018-05-03T06:57:35.873Z,10.17
2018-05-03T07:00:05.049Z,9.90
2018-05-03T07:02:34.364Z,9.90
2018-05-03T07:05:03.499Z,9.67
2018-05-03T07:07:31.858Z,8.77
2018-05-03T07:10:01.103Z,8.83
2018-05-03T07:12:29.525Z,8.50
2018-05-03T07:14:58.954Z,7.90
2018-05-03T07:17:27.321Z,7.20
2018-05-03T07:19:56.428Z,7.30
2018-05-03T07:22:24.860Z,7.40
2018-05-03T07:24:53.377Z,8.30
2018-05-03T07:27:22.050Z,8.00
2018-05-03T07:29:50.446Z,7.37
2018-05-03T07:32:19.045Z,7.90
2018-05-03T07:34:47.851Z,7.93
2018-05-03T07:37:16.566Z,6.23
2018-05-03T07:39:44.977Z,5.30
2018-05-03T07:42:13.475Z,5.50
2018-05-03T07:44:42.660Z,5.20
2018-05-03T07:47:11.786Z,5.17
2018-05-03T07:49:40.299Z,5.70
2018-05-03T07:52:08.727Z,4.53
2018-05-03T07:54:37.154Z,4.03
2018-05-03T07:57:05.645Z,4.27
2018-05-03T07:59:34.224Z,4.43
2018-05-03T08:02:02.790Z,3.60
2018-05-03T08:04:31.389Z,3.43
2018-05-03T08:07:00.595Z,3.03
2018-05-03T08:09:29.056Z,2.73
2018-05-03T08:11:57.755Z,2.30
2018-05-03T08:14:26.275Z,2.10
2018-05-03T08:16:54.686Z,2.03
2018-05-03T08:19:23.038Z,2.10
2018-05-03T08:21:52.216Z,2.10
2018-05-03T08:24:20.562Z,2.10
2018-05-03T08:26:48.903Z,1.80
2018-05-03T08:29:18.027Z,1.90
2018-05-03T08:31:46.391Z,1.70
2018-05-03T08:34:15.567Z,2.00
2018-05-03T08:36:44.671Z,2.00
2018-05-03T08:39:13.039Z,2.60
2018-05-03T08:41:42.152Z,1.87
2018-05-03T08:44:10.543Z,1.90
2018-05-03T08:46:38.886Z,1.70
2018-05-03T08:49:07.229Z,2.00
2018-05-03T08:51:35.934Z,1.90
2018-05-03T08:54:04.290Z,1.60
2018-05-03T08:56:32.654Z,1.50
2018-05-03T08:59:01.040Z,1.47
2018-05-03T09:01:29.490Z,1.90
2018-05-03T09:03:58.962Z,1.40
2018-05-03T09:06:27.331Z,1.50
2018-05-03T09:08:55.676Z,1.23
2018-05-03T09:11:24.046Z,1.53
2018-05-03T09:13:52.402Z,1.33
2018-05-03T09:16:21.637Z,1.40
2018-05-03T09:18:49.993Z,1.60
2018-05-03T09:21:18.727Z,1.93
2018-05-03T09:23:47.231Z,5.83
2018-05-03T09:26:15.668Z,1.93
2018-05-03T09:28:44.064Z,1.37
2018-05-03T09:31:12.452Z,1.80
2018-05-03T09:33:40.913Z,1.70
2018-05-03T09:36:09.580Z,1.73
2018-05-03T09:38:37.925Z,2.30
2018-05-03T09:41:07.086Z,1.80
2018-05-03T09:43:35.462Z,1.50
2018-05-03T09:46:03.902Z,1.50
2018-05-03T09:48:33.047Z,1.40
2018-05-03T09:51:01.392Z,1.43
2018-05-03T09:53:29.999Z,1.70
2018-05-03T09:55:58.338Z,1.60
2018-05-03T09:58:27.524Z,7.37
2018-05-03T10:00:55.915Z,1.83
2018-05-03T10:03:25.026Z,1.57
2018-05-03T10:05:53.387Z,1.90
2018-05-03T10:08:22.498Z,1.33
2018-05-03T10:10:50.888Z,1.53
2018-05-03T10:13:19.286Z,1.63
2018-05-03T10:15:48.340Z,1.75
2018-05-03T10:18:17.541Z,1.60
2018-05-03T10:20:45.944Z,2.40
2018-05-03T10:23:14.331Z,1.83
2018-05-03T10:25:42.682Z,2.33
2018-05-03T10:28:11.304Z,1.90
2018-05-03T10:30:40.490Z,2.03
2018-05-03T10:33:08.873Z,1.85
2018-05-03T10:35:37.308Z,1.80
2018-05-03T10:38:05.572Z,2.20
2018-05-03T10:40:34.025Z,2.00
2018-05-03T10:43:02.382Z,1.83
2018-05-03T10:45:30.769Z,2.17
2018-05-03T10:47:59.150Z,2.28
2018-05-03T10:50:27.518Z,2.10
2018-05-03T10:52:55.866Z,2.37
2018-05-03T10:55:25.008Z,2.10
2018-05-03T10:57:53.350Z,1.77
2018-05-03T11:00:21.997Z,1.70
2018-05-03T11:02:50.335Z,2.13
2018-05-03T11:05:18.872Z,2.10
2018-05-03T11:07:47.208Z,2.03
2018-05-03T11:10:15.578Z,2.65
2018-05-03T11:12:43.988Z,2.25
2018-05-03T11:15:12.532Z,2.15
2018-05-03T11:17:40.886Z,10.07
2018-05-03T11:20:09.258Z,2.30
2018-05-03T11:22:38.388Z,2.20
2018-05-03T11:25:06.764Z,2.50
2018-05-03T11:27:36.141Z,2.60
2018-05-03T11:30:04.623Z,2.40
2018-05-03T11:32:33.755Z,2.20
2018-05-03T11:35:02.199Z,2.30
2018-05-03T11:37:30.559Z,2.40
2018-05-03T11:39:58.912Z,2.60
2018-05-03T11:42:27.419Z,2.53
2018-05-03T11:44:55.812Z,2.07
2018-05-03T11:47:24.151Z,2.70
2018-05-03T11:49:52.495Z,2.35
2018-05-03T11:52:21.812Z,2.20
2018-05-03T11:54:50.223Z,2.65
2018-05-03T11:57:18.631Z,2.33
2018-05-03T11:59:46.983Z,2.00
2018-05-03T12:02:15.493Z,2.40
2018-05-03T12:04:43.932Z,3.47
2018-05-03T12:07:12.290Z,2.78
2018-05-03T12:09:40.723Z,2.80
2018-05-03T12:12:09.100Z,2.40
2018-05-03T12:14:37.556Z,2.17
2018-05-03T12:17:05.930Z,2.20
2018-05-03T12:19:34.300Z,2.20
2018-05-03T12:22:02.669Z,2.47
2018-05-03T12:24:31.327Z,2.10
2018-05-03T12:26:59.671Z,2.58
2018-05-03T12:29:28.148Z,2.72
2018-05-03T12:31:56.632Z,2.60
2018-05-03T12:34:25.298Z,2.47
2018-05-03T12:36:53.668Z,2.50
2018-05-03T12:39:22.121Z,2.42
2018-05-03T12:41:51.369Z,2.80
2018-05-03T12:44:19.777Z,2.50
2018-05-03T12:46:48.211Z,1.95
2018-05-03T12:49:17.226Z,2.42
2018-05-03T12:51:45.657Z,2.55
2018-05-03T12:54:14.289Z,4.43
2018-05-03T12:56:42.656Z,2.28
2018-05-03T12:59:11.016Z,2.30
2018-05-03T13:01:39.367Z,2.22
2018-05-03T13:04:07.915Z,2.15
2018-05-03T13:06:36.266Z,2.65
2018-05-03T13:09:04.769Z,2.72
2018-05-03T13:11:33.112Z,3.92
2018-05-03T13:14:01.613Z,2.30
2018-05-03T13:16:29.955Z,2.40
2018-05-03T13:18:59.104Z,2.37
2018-05-03T13:21:27.451Z,2.20
2018-05-03T13:23:55.869Z,1.95
2018-05-03T13:26:24.245Z,1.92
2018-05-03T13:28:52.834Z,6.87
2018-05-03T13:31:21.198Z,2.30
2018-05-03T13:33:49.635Z,2.33
2018-05-03T13:36:18.062Z,2.45
2018-05-03T13:38:46.396Z,2.40
2018-05-03T13:41:15.707Z,2.50
2018-05-03T13:43:44.086Z,2.20
2018-05-03T13:46:13.227Z,2.92
2018-05-03T13:48:41.604Z,2.42
2018-05-03T13:51:09.995Z,2.50
2018-05-03T13:53:38.346Z,2.75
2018-05-03T13:56:06.695Z,2.17
2018-05-03T13:58:35.836Z,2.15
2018-05-03T14:01:04.292Z,2.00
2018-05-03T14:03:33.402Z,2.37
2018-05-03T14:06:01.819Z,5.45
2018-05-03T14:08:30.198Z,3.10
2018-05-03T14:10:58.645Z,2.28
2018-05-03T14:13:27.248Z,2.30
2018-05-03T14:15:55.670Z,2.30
2018-05-03T14:18:24.779Z,2.22
2018-05-03T14:20:54.030Z,2.30
2018-05-03T14:23:22.403Z,2.28
2018-05-03T14:25:50.762Z,1.95
2018-05-03T14:28:19.140Z,2.08
2018-05-03T14:30:47.490Z,2.42
2018-05-03T14:33:16.613Z,2.47
2018-05-03T14:35:45.051Z,2.33
2018-05-03T14:38:13.478Z,2.20
2018-05-03T14:40:41.998Z,2.47
2018-05-03T14:43:10.359Z,2.20
2018-05-03T14:45:38.681Z,2.45
2018-05-03T14:48:07.828Z,2.60
2018-05-03T14:50:36.237Z,2.58
2018-05-03T14:53:04.887Z,2.40
2018-05-03T14:55:33.274Z,2.60
2018-05-03T14:58:01.646Z,2.33
2018-05-03T15:00:30.664Z,5.85
2018-05-03T15:02:59.106Z,2.65
2018-05-03T15:05:27.451Z,2.25
2018-05-03T15:07:55.884Z,2.30
2018-05-03T15:10:24.257Z,2.12
2018-05-03T15:12:52.635Z,2.10
2018-05-03T15:15:20.987Z,2.10
2018-05-03T15:17:49.349Z,2.70
2018-05-03T15:20:17.752Z,2.15
2018-05-03T15:22:46.096Z,2.25
2018-05-03T15:25:14.532Z,1.87
2018-05-03T15:27:42.878Z,2.30
2018-05-03T15:30:12.014Z,2.17
2018-05-03T15:32:40.363Z,3.10
2018-05-03T15:35:08.706Z,2.53
2018-05-03T15:37:37.061Z,2.35
2018-05-03T15:40:05.414Z,2.30
2018-05-03T15:42:33.855Z,2.20
2018-05-03T15:45:02.309Z,2.20
2018-05-03T15:47:30.799Z,2.10
2018-05-03T15:49:59.235Z,2.03
2018-05-03T15:52:27.558Z,2.05
2018-05-03T15:54:55.888Z,5.53
2018-05-03T15:57:24.235Z,2.90
2018-05-03T15:59:53.354Z,2.10
2018-05-03T16:02:21.775Z,2.12
2018-05-03T16:04:50.142Z,2.20
2018-05-03T16:07:18.604Z,2.40
2018-05-03T16:09:46.954Z,2.10
2018-05-03T16:12:16.088Z,2.03
2018-05-03T16:14:44.457Z,2.10
2018-05-03T16:17:12.838Z,3.37
2018-05-03T16:19:41.194Z,2.10
2018-05-03T16:22:09.523Z,1.93
2018-05-03T16:24:37.872Z,2.27
2018-05-03T16:27:06.245Z,1.90
2018-05-03T16:29:34.673Z,1.90
2018-05-03T16:32:03.127Z,2.10
2018-05-03T16:34:31.614Z,3.67
2018-05-03T16:36:59.900Z,1.83
2018-05-03T16:39:28.390Z,2.13
2018-05-03T16:41:56.745Z,2.50
2018-05-03T16:44:25.098Z,4.17
2018-05-03T16:46:54.265Z,2.63
2018-05-03T16:49:22.577Z,2.17
2018-05-03T16:51:51.692Z,2.57
2018-05-03T16:54:20.035Z,3.67
2018-05-03T16:56:48.513Z,2.25
2018-05-03T16:59:16.925Z,2.00
2018-05-03T17:01:46.252Z,2.00
2018-05-03T17:04:14.606Z,2.05
2018-05-03T17:06:43.421Z,2.08
2018-05-03T17:09:11.743Z,2.62
2018-05-03T17:11:40.179Z,2.60
2018-05-03T17:14:08.915Z,2.40
2018-05-03T17:16:37.345Z,2.37
2018-05-03T17:19:07.056Z,5.22
2018-05-03T17:21:35.605Z,4.00
2018-05-03T17:24:03.956Z,2.60
2018-05-03T17:26:32.382Z,3.20
2018-05-03T17:29:00.879Z,2.17
2018-05-03T17:31:29.203Z,2.80
2018-05-03T17:33:57.584Z,3.07
2018-05-03T17:36:26.072Z,3.40
2018-05-03T17:38:55.261Z,3.33
2018-05-03T17:41:23.652Z,4.03
2018-05-03T17:43:52.842Z,3.00
2018-05-03T17:46:21.184Z,2.80
2018-05-03T17:48:49.561Z,2.73
2018-05-03T17:51:18.032Z,2.50
2018-05-03T17:53:47.008Z,3.00
2018-05-03T17:56:15.359Z,3.70
2018-05-03T17:58:43.740Z,3.13
2018-05-03T18:01:12.895Z,2.20
2018-05-03T18:03:41.344Z,2.27
2018-05-03T18:06:10.467Z,2.40
2018-05-03T18:08:38.816Z,2.00
2018-05-03T18:11:07.235Z,2.50
2018-05-03T18:13:35.681Z,1.90
2018-05-03T18:16:04.148Z,1.90
2018-05-03T18:18:32.688Z,3.20
2018-05-03T18:21:01.169Z,2.87
2018-05-03T18:23:29.666Z,2.60
2018-05-03T18:25:58.174Z,2.40
2018-05-03T18:28:27.316Z,2.40
2018-05-03T18:30:55.660Z,2.70
2018-05-03T18:33:24.872Z,3.60
2018-05-03T18:35:53.217Z,3.40
2018-05-03T18:38:21.566Z,3.47
2018-05-03T18:40:49.984Z,3.50
2018-05-03T18:43:20.029Z,3.33
2018-05-03T18:45:48.522Z,3.40
2018-05-03T18:48:16.865Z,21.40
2018-05-03T18:50:46.029Z,9.73
2018-05-03T18:53:14.401Z,2.97
2018-05-03T18:55:42.777Z,2.60
2018-05-03T18:58:11.197Z,2.80
2018-05-03T19:00:39.649Z,3.10
2018-05-03T19:03:08.013Z,3.03
2018-05-03T19:05:36.420Z,3.33
2018-05-03T19:08:04.997Z,3.13
2018-05-03T19:10:33.458Z,3.00
2018-05-03T19:13:01.867Z,2.93
2018-05-03T19:15:30.195Z,3.27
2018-05-03T19:17:58.624Z,2.93
2018-05-03T19:20:26.970Z,3.40
2018-05-03T19:22:55.323Z,2.50
2018-05-03T19:25:23.868Z,2.77
2018-05-03T19:27:52.541Z,2.80
2018-05-03T19:30:20.898Z,3.53
2018-05-03T19:32:49.267Z,5.40
2018-05-03T19:35:17.636Z,4.63
2018-05-03T19:37:45.980Z,4.07
2018-05-03T19:40:14.358Z,4.17
2018-05-03T19:42:43.471Z,3.53
2018-05-03T19:45:12.585Z,2.70
2018-05-03T19:47:41.011Z,3.07
2018-05-03T19:50:09.315Z,2.97
2018-05-03T19:52:38.430Z,6.43
2018-05-03T19:55:06.895Z,5.60
2018-05-03T19:57:35.217Z,3.50
2018-05-03T20:00:03.805Z,3.17
2018-05-03T20:02:32.151Z,2.80
2018-05-03T20:05:01.377Z,2.70
2018-05-03T20:07:30.462Z,3.20
2018-05-03T20:10:00.504Z,2.83
2018-05-03T20:12:30.319Z,2.63
2018-05-03T20:14:59.529Z,2.77
2018-05-03T20:17:27.882Z,2.33
2018-05-03T20:19:56.225Z,2.80
2018-05-03T20:22:25.387Z,2.83
2018-05-03T20:24:54.402Z,3.37
2018-05-03T20:27:22.728Z,2.60
2018-05-03T20:29:51.307Z,2.93
2018-05-03T20:32:19.684Z,2.10
2018-05-03T20:34:48.073Z,2.50
2018-05-03T20:37:16.437Z,3.03
2018-05-03T20:39:44.868Z,2.70
2018-05-03T20:42:13.176Z,2.90
2018-05-03T20:44:42.639Z,2.47
2018-05-03T20:47:11.814Z,2.70
2018-05-03T20:49:40.139Z,2.53
2018-05-03T20:52:09.384Z,3.00
2018-05-03T20:54:37.714Z,2.80
2018-05-03T20:57:07.155Z,3.30
2018-05-03T20:59:35.492Z,2.70
2018-05-03T21:02:03.860Z,2.77
2018-05-03T21:04:32.207Z,9.27
2018-05-03T21:07:00.827Z,3.00
2018-05-03T21:09:29.158Z,2.23
2018-05-03T21:11:57.506Z,2.70
2018-05-03T21:14:26.649Z,2.43
2018-05-03T21:16:55.025Z,2.40
2018-05-03T21:19:23.384Z,2.47
2018-05-03T21:21:51.724Z,2.83
2018-05-03T21:24:20.078Z,2.90
2018-05-03T21:26:48.429Z,2.70
2018-05-03T21:29:16.800Z,3.33
2018-05-03T21:31:45.319Z,2.80
2018-05-03T21:34:13.763Z,2.53
2018-05-03T21:36:42.109Z,3.07
2018-05-03T21:39:11.122Z,2.40
2018-05-03T21:41:40.277Z,2.67
2018-05-03T21:44:08.631Z,2.43
2018-05-03T21:46:36.989Z,2.43
2018-05-03T21:49:06.087Z,2.70
2018-05-03T21:51:34.434Z,3.17
2018-05-03T21:54:02.795Z,2.77
2018-05-03T21:56:31.145Z,2.43
2018-05-03T21:58:59.505Z,2.47
2018-05-03T22:01:27.915Z,2.67
2018-05-03T22:03:56.362Z,2.53
2018-05-03T22:06:24.661Z,18.97
2018-05-03T22:08:52.990Z,5.50
2018-05-03T22:11:22.087Z,3.33
2018-05-03T22:13:51.477Z,3.07
2018-05-03T22:16:19.808Z,2.57
2018-05-03T22:18:48.170Z,2.77
2018-05-03T22:21:16.631Z,3.00
2018-05-03T22:23:45.005Z,3.23
2018-05-03T22:26:13.490Z,2.90
2018-05-03T22:28:41.845Z,2.70
2018-05-03T22:31:10.207Z,2.93
2018-05-03T22:33:38.557Z,2.70
2018-05-03T22:36:06.924Z,2.87
2018-05-03T22:38:36.024Z,3.10
2018-05-03T22:41:04.502Z,2.43
2018-05-03T22:43:32.848Z,3.00
2018-05-03T22:46:01.273Z,9.10
2018-05-03T22:48:29.671Z,17.33
2018-05-03T22:50:58.064Z,5.70
2018-05-03T22:53:26.401Z,3.60
2018-05-03T22:55:54.735Z,2.60
2018-05-03T22:58:23.925Z,2.70
2018-05-03T23:00:52.440Z,2.80
2018-05-03T23:03:20.803Z,2.80
2018-05-03T23:05:49.268Z,3.10
2018-05-03T23:08:17.647Z,2.47
2018-05-03T23:10:46.039Z,2.90
2018-05-03T23:13:14.454Z,3.37
2018-05-03T23:15:45.059Z,21.53
2018-05-03T23:18:13.716Z,6.20
2018-05-03T23:20:42.109Z,3.20
2018-05-03T23:23:10.476Z,2.63
2018-05-03T23:25:38.963Z,2.80
2018-05-03T23:28:07.290Z,2.70
2018-05-03T23:30:36.043Z,3.07
2018-05-03T23:33:04.392Z,2.83
2018-05-03T23:35:32.895Z,2.67
2018-05-03T23:38:01.301Z,2.90
2018-05-03T23:40:29.634Z,2.53
2018-05-03T23:42:58.020Z,2.80
2018-05-03T23:45:26.347Z,2.87
2018-05-03T23:47:55.469Z,9.40
2018-05-03T23:50:23.843Z,7.27
2018-05-03T23:52:52.189Z,3.07
2018-05-03T23:55:20.721Z,3.30
2018-05-03T23:57:49.068Z,2.63
